Time;durP1;ratioP1;P1;durP2;ratioP2;P2;SDS_P1;SDS_P2;PMS_P1;PMS_P2;Temp;Humidity;BMP_temperature;BMP_pressure;BME280_temperature;BME280_humidity;BME280_pressure;Samples;Min_cycle;Max_cycle;Signal;HPM_P1;HPM_P2
2021/12/02 00:00:23;;;;;;;6.75;1.62;;;4.30;99.90;;;;;;7379309;32;20681;-59
2021/12/02 00:04:27;;;;;;;6.72;1.85;;;4.40;99.90;;;;;;7380124;32;20208;-59
2021/12/02 00:08:29;;;;;;;6.43;1.98;;;4.30;99.90;;;;;;7379135;32;20218;-59
2021/12/02 00:12:31;;;;;;;4.28;1.45;;;4.40;99.90;;;;;;7374945;32;20470;-60
2021/12/02 00:21:05;;;;;;;9.48;1.60;;;4.50;99.90;;;;;;7378644;32;20111;-59
2021/12/02 00:25:07;;;;;;;5.93;1.33;;;4.40;99.90;;;;;;7383349;32;20130;-59
2021/12/02 00:29:09;;;;;;;6.25;1.70;;;4.50;99.90;;;;;;7377399;32;20133;-58
2021/12/02 00:33:11;;;;;;;5.15;1.87;;;4.50;99.90;;;;;;7383101;32;20252;-59
2021/12/02 00:37:13;;;;;;;5.18;2.03;;;4.50;99.90;;;;;;7383555;32;20113;-60
2021/12/02 00:41:18;;;;;;;9.43;1.90;;;4.60;99.90;;;;;;7381329;32;20579;-60
2021/12/02 00:45:19;;;;;;;10.40;2.22;;;4.60;99.90;;;;;;7382328;32;20632;-60
2021/12/02 00:49:21;;;;;;;8.73;2.33;;;4.70;99.90;;;;;;7381749;32;20214;-59
2021/12/02 00:53:24;;;;;;;8.55;2.35;;;4.70;99.90;;;;;;7374646;32;20453;-60
2021/12/02 00:57:27;;;;;;;9.73;2.45;;;4.80;99.90;;;;;;7377029;32;20186;-60
2021/12/02 01:01:35;;;;;;;8.70;2.47;;;4.70;99.90;;;;;;7382807;32;20559;-58
2021/12/02 01:05:37;;;;;;;12.20;2.95;;;4.70;99.90;;;;;;7381820;32;20315;-59
2021/12/02 01:09:39;;;;;;;10.65;2.87;;;4.70;99.90;;;;;;7376529;32;20124;-58
2021/12/02 01:13:40;;;;;;;8.32;2.97;;;4.90;99.90;;;;;;7380872;32;20111;-58
2021/12/02 01:17:42;;;;;;;7.68;2.53;;;4.80;99.90;;;;;;7383697;32;20111;-59
2021/12/02 01:21:45;;;;;;;9.68;3.05;;;4.90;99.90;;;;;;7382353;32;20145;-59
2021/12/02 01:26:04;;;;;;;7.70;2.70;;;4.90;99.90;;;;;;7377748;32;20130;-59
2021/12/02 01:30:06;;;;;;;9.68;3.05;;;5.00;99.90;;;;;;7380085;32;20194;-60
2021/12/02 01:34:08;;;;;;;10.75;3.83;;;5.00;99.90;;;;;;7377723;32;20106;-60
2021/12/02 01:38:10;;;;;;;9.90;3.35;;;5.00;99.90;;;;;;7371790;32;20247;-59
2021/12/02 01:42:23;;;;;;;11.00;2.67;;;5.00;99.90;;;;;;7374561;32;20111;-59
2021/12/02 01:46:25;;;;;;;9.55;3.00;;;5.00;99.90;;;;;;7375541;32;20187;-59
2021/12/02 01:50:27;;;;;;;7.82;2.90;;;5.10;99.90;;;;;;7374679;32;20107;-60
2021/12/02 01:54:29;;;;;;;12.95;3.05;;;5.10;99.90;;;;;;7366090;32;20099;-60
2021/12/02 01:58:34;;;;;;;8.00;2.35;;;5.00;99.90;;;;;;7367332;32;20130;-60
2021/12/02 02:02:38;;;;;;;9.30;2.67;;;5.00;99.90;;;;;;7374394;32;20119;-58
2021/12/02 02:06:50;;;;;;;9.77;2.05;;;5.10;99.90;;;;;;7381484;32;20221;-60
2021/12/02 02:10:51;;;;;;;10.50;2.50;;;5.10;99.90;;;;;;7363873;32;20107;-59
2021/12/02 02:14:54;;;;;;;8.23;2.50;;;5.10;99.90;;;;;;7376876;32;20115;-59
2021/12/02 02:18:56;;;;;;;8.07;2.15;;;5.10;99.90;;;;;;7381533;32;20130;-60
2021/12/02 02:22:58;;;;;;;13.80;2.33;;;5.00;99.90;;;;;;7381060;32;20690;-59
2021/12/02 02:27:00;;;;;;;7.12;1.65;;;5.10;99.90;;;;;;7381998;32;20121;-59
2021/12/02 02:31:02;;;;;;;9.98;2.17;;;5.10;99.90;;;;;;7380056;32;20115;-59
2021/12/02 02:35:05;;;;;;;12.23;2.28;;;5.00;99.90;;;;;;7381757;32;20126;-59
2021/12/02 02:39:07;;;;;;;6.60;2.15;;;5.10;99.90;;;;;;7379880;32;20604;-60
2021/12/02 02:43:10;;;;;;;4.65;1.50;;;5.00;99.90;;;;;;7381945;32;20107;-59
2021/12/02 02:47:12;;;;;;;10.27;1.77;;;5.00;99.90;;;;;;7381745;32;20527;-58
2021/12/02 02:51:14;;;;;;;6.93;1.52;;;4.90;99.90;;;;;;7373473;32;20530;-59
2021/12/02 02:55:22;;;;;;;7.45;1.55;;;4.90;99.90;;;;;;7377398;32;20571;-59
2021/12/02 03:00:14;;;;;;;8.80;1.90;;;4.90;99.90;;;;;;7376051;32;20107;-59
2021/12/02 03:04:20;;;;;;;2.92;1.10;;;4.90;99.90;;;;;;7374186;32;20111;-61
2021/12/02 03:08:30;;;;;;;9.35;1.90;;;4.80;99.90;;;;;;7368645;32;20130;-58
2021/12/02 03:12:41;;;;;;;6.40;1.98;;;4.80;99.90;;;;;;7379301;32;20107;-58
2021/12/02 03:16:46;;;;;;;4.57;1.40;;;4.70;99.90;;;;;;7379624;32;20125;-59
2021/12/02 03:20:48;;;;;;;7.78;1.42;;;4.70;99.90;;;;;;7376459;32;20107;-60
2021/12/02 03:24:50;;;;;;;8.60;1.60;;;4.70;99.90;;;;;;7370071;32;20525;-58
2021/12/02 03:28:52;;;;;;;5.75;1.40;;;4.70;99.90;;;;;;7365542;32;20159;-62
2021/12/02 03:32:54;;;;;;;5.43;1.00;;;4.60;99.90;;;;;;7366358;32;20103;-60
2021/12/02 03:36:55;;;;;;;8.38;1.08;;;4.60;99.90;;;;;;7378637;32;20664;-60
2021/12/02 03:40:57;;;;;;;5.07;1.00;;;4.60;99.90;;;;;;7377619;32;20161;-60
2021/12/02 03:44:59;;;;;;;9.07;1.42;;;4.60;99.90;;;;;;7379652;32;20129;-59
2021/12/02 03:49:01;;;;;;;5.62;0.90;;;4.60;99.90;;;;;;7377628;32;20601;-60
2021/12/02 03:53:02;;;;;;;3.83;0.70;;;4.60;99.90;;;;;;7379264;32;20130;-60
2021/12/02 03:57:04;;;;;;;7.50;0.95;;;4.60;99.90;;;;;;7380434;32;20107;-60
2021/12/02 04:01:07;;;;;;;6.30;0.98;;;4.50;99.90;;;;;;7384097;32;20220;-60
2021/12/02 04:05:09;;;;;;;5.50;1.02;;;4.50;99.90;;;;;;7382416;32;20198;-59
2021/12/02 04:09:20;;;;;;;6.03;1.20;;;4.50;99.90;;;;;;7378530;32;20225;-60
2021/12/02 04:13:27;;;;;;;2.62;1.00;;;4.40;99.90;;;;;;7382058;32;20514;-60
2021/12/02 04:17:41;;;;;;;4.87;1.30;;;4.40;99.90;;;;;;7382474;32;20117;-60
2021/12/02 04:21:43;;;;;;;5.07;1.10;;;4.40;99.90;;;;;;7381657;32;20181;-60
2021/12/02 04:25:44;;;;;;;2.37;0.93;;;4.30;99.90;;;;;;7383974;32;20111;-59
2021/12/02 04:29:46;;;;;;;4.82;0.82;;;4.40;99.90;;;;;;7383845;32;20232;-59
2021/12/02 04:33:47;;;;;;;4.62;0.95;;;4.20;99.90;;;;;;7380035;32;20129;-59
2021/12/02 04:37:51;;;;;;;2.67;0.88;;;4.20;99.90;;;;;;7381107;32;21233;-58
2021/12/02 04:41:53;;;;;;;6.18;1.10;;;4.10;99.90;;;;;;7375407;32;20111;-59
2021/12/02 04:45:55;;;;;;;4.95;0.70;;;4.10;99.90;;;;;;7384391;32;20099;-60
2021/12/02 04:49:57;;;;;;;5.57;0.80;;;4.20;99.90;;;;;;7383520;32;20483;-59
2021/12/02 04:53:58;;;;;;;3.92;0.88;;;4.20;99.90;;;;;;7380260;32;20515;-59
2021/12/02 04:58:00;;;;;;;1.52;0.60;;;4.10;99.90;;;;;;7378191;32;20158;-58
2021/12/02 05:02:02;;;;;;;1.85;0.90;;;4.10;99.90;;;;;;7377767;32;20522;-59
2021/12/02 05:06:04;;;;;;;4.03;0.68;;;4.00;99.90;;;;;;7383031;32;20167;-59
2021/12/02 05:10:07;;;;;;;2.62;0.47;;;3.80;99.90;;;;;;7375483;32;20194;-59
2021/12/02 05:14:09;;;;;;;2.67;0.55;;;3.70;99.90;;;;;;7375166;32;20107;-59
2021/12/02 05:18:11;;;;;;;3.05;0.50;;;3.60;99.90;;;;;;7373217;32;20213;-59
2021/12/02 05:22:13;;;;;;;2.83;0.60;;;3.50;99.90;;;;;;7370073;32;20130;-59
2021/12/02 05:26:15;;;;;;;2.15;0.52;;;3.50;99.90;;;;;;7378309;32;20125;-58
2021/12/02 05:30:16;;;;;;;1.90;0.45;;;3.40;99.90;;;;;;7377087;32;20206;-59
2021/12/02 05:34:18;;;;;;;3.50;0.82;;;3.50;99.90;;;;;;7367013;32;20574;-59
2021/12/02 05:38:20;;;;;;;4.70;1.00;;;3.50;99.90;;;;;;7365702;32;20099;-60
2021/12/02 05:42:22;;;;;;;3.67;1.02;;;3.50;99.90;;;;;;7379622;32;20172;-60
2021/12/02 05:46:28;;;;;;;2.22;1.10;;;3.50;99.90;;;;;;7380312;32;20214;-59
2021/12/02 05:50:30;;;;;;;2.30;0.90;;;3.50;99.90;;;;;;7382035;32;20103;-60
2021/12/02 05:54:32;;;;;;;2.58;1.27;;;3.50;99.90;;;;;;7381364;32;20127;-59
2021/12/02 05:58:34;;;;;;;4.35;1.60;;;3.50;99.90;;;;;;7368029;32;20145;-59
2021/12/02 06:02:37;;;;;;;4.00;1.90;;;3.40;99.90;;;;;;7377554;32;20103;-59
2021/12/02 06:06:40;;;;;;;6.15;2.25;;;3.40;99.90;;;;;;7379969;32;20110;-59
2021/12/02 06:10:42;;;;;;;4.40;2.25;;;3.40;99.90;;;;;;7381030;32;20111;-60
2021/12/02 06:14:44;;;;;;;5.18;2.50;;;3.50;99.90;;;;;;7380692;32;20477;-59
2021/12/02 06:18:46;;;;;;;7.45;2.78;;;3.50;99.90;;;;;;7380883;32;20815;-59
2021/12/02 06:22:48;;;;;;;5.82;2.40;;;3.60;99.90;;;;;;7375436;32;20134;-60
2021/12/02 06:26:49;;;;;;;10.23;3.70;;;3.50;99.90;;;;;;7375074;32;20214;-60
2021/12/02 06:30:51;;;;;;;6.50;2.92;;;3.50;99.90;;;;;;7382268;32;20469;-59
2021/12/02 06:34:53;;;;;;;5.40;3.30;;;3.60;99.90;;;;;;7366411;32;20125;-59
2021/12/02 06:38:54;;;;;;;6.85;2.90;;;3.60;99.90;;;;;;7367270;32;20133;-60
2021/12/02 06:42:56;;;;;;;6.50;3.03;;;3.60;99.90;;;;;;7374704;32;20118;-61
2021/12/02 06:46:57;;;;;;;8.43;3.10;;;3.70;99.90;;;;;;7380505;32;20704;-59
2021/12/02 06:50:59;;;;;;;8.38;3.10;;;3.70;99.90;;;;;;7380176;32;20118;-60
2021/12/02 06:55:01;;;;;;;6.03;3.12;;;3.70;99.90;;;;;;7367662;32;20138;-60
2021/12/02 06:59:02;;;;;;;6.45;3.30;;;3.80;99.90;;;;;;7372407;32;20188;-59
2021/12/02 07:03:04;;;;;;;7.28;3.30;;;3.80;99.90;;;;;;7376809;32;20966;-60
2021/12/02 07:07:06;;;;;;;8.60;3.00;;;3.80;99.90;;;;;;7372648;32;20213;-60
2021/12/02 07:11:10;;;;;;;6.53;2.90;;;3.80;99.90;;;;;;7379272;32;20222;-60
2021/12/02 07:15:19;;;;;;;7.85;2.83;;;3.70;99.90;;;;;;7379981;32;20179;-59
2021/12/02 07:19:20;;;;;;;5.95;2.62;;;3.60;99.90;;;;;;7377597;32;20125;-59
2021/12/02 07:23:22;;;;;;;8.88;3.10;;;3.60;99.90;;;;;;7379795;32;20115;-59
2021/12/02 07:27:25;;;;;;;6.45;3.47;;;3.70;99.90;;;;;;7379866;32;20099;-59
2021/12/02 07:31:30;;;;;;;9.30;3.50;;;3.70;99.90;;;;;;7375191;32;20190;-60
2021/12/02 07:35:32;;;;;;;10.57;3.97;;;3.80;99.90;;;;;;7367023;32;20138;-60
2021/12/02 07:39:34;;;;;;;8.30;3.65;;;3.70;99.90;;;;;;7364674;32;20472;-60
2021/12/02 07:43:56;;;;;;;5.78;2.78;;;3.70;99.90;;;;;;7372695;32;20509;-60
2021/12/02 07:47:59;;;;;;;5.20;2.55;;;3.70;99.90;;;;;;7369017;32;20705;-59
2021/12/02 07:52:02;;;;;;;5.57;2.62;;;3.60;99.90;;;;;;7362577;32;20107;-59
2021/12/02 07:56:07;;;;;;;9.88;3.10;;;3.60;99.90;;;;;;7369266;32;20524;-60
2021/12/02 08:00:10;;;;;;;9.15;3.20;;;3.60;99.90;;;;;;7353394;32;20518;-59
2021/12/02 08:04:13;;;;;;;5.68;2.78;;;3.60;99.90;;;;;;7361585;32;20115;-59
2021/12/02 08:08:14;;;;;;;5.28;2.50;;;3.60;99.90;;;;;;7364039;32;20541;-59
2021/12/02 08:12:16;;;;;;;5.00;2.17;;;3.60;99.90;;;;;;7372973;32;20134;-59
2021/12/02 08:16:20;;;;;;;7.10;2.05;;;3.70;99.90;;;;;;7355545;32;20140;-59
2021/12/02 08:20:24;;;;;;;6.22;2.10;;;3.70;99.90;;;;;;7358089;32;20122;-59
2021/12/02 08:24:26;;;;;;;2.75;1.40;;;3.70;99.90;;;;;;7361680;32;20213;-59
2021/12/02 08:28:28;;;;;;;5.10;1.73;;;3.70;99.90;;;;;;7367350;32;20111;-59
2021/12/02 08:32:30;;;;;;;2.87;1.42;;;3.70;99.90;;;;;;7362032;32;20107;-59
2021/12/02 08:36:42;;;;;;;6.07;1.85;;;3.60;99.90;;;;;;7363365;32;20130;-60
2021/12/02 08:40:47;;;;;;;2.40;1.65;;;3.60;99.90;;;;;;7361604;32;20225;-60
2021/12/02 08:44:50;;;;;;;4.53;1.40;;;3.70;99.90;;;;;;7371806;32;20134;-60
2021/12/02 08:48:53;;;;;;;4.55;1.33;;;3.60;99.90;;;;;;7377189;32;20425;-60
2021/12/02 08:52:55;;;;;;;2.78;1.70;;;3.70;99.90;;;;;;7368814;32;20882;-60
2021/12/02 08:56:57;;;;;;;2.70;1.30;;;3.80;99.90;;;;;;7370939;32;20588;-60
2021/12/02 09:00:59;;;;;;;7.07;1.48;;;3.80;99.90;;;;;;7368056;32;20104;-60
2021/12/02 09:05:01;;;;;;;5.90;1.40;;;3.90;99.90;;;;;;7367716;32;20297;-59
2021/12/02 09:09:03;;;;;;;3.40;1.60;;;3.90;99.90;;;;;;7374661;32;20496;-59
2021/12/02 09:13:08;;;;;;;3.35;1.90;;;3.90;99.90;;;;;;7369289;32;20130;-59
2021/12/02 09:17:09;;;;;;;3.45;1.62;;;3.80;99.90;;;;;;7368007;32;20111;-60
2021/12/02 09:21:11;;;;;;;5.18;1.65;;;3.60;99.90;;;;;;7367184;32;20121;-60
2021/12/02 09:25:16;;;;;;;4.43;1.40;;;3.70;99.90;;;;;;7371925;32;20581;-59
2021/12/02 09:29:19;;;;;;;3.95;1.40;;;3.70;99.90;;;;;;7371233;32;20245;-60
2021/12/02 09:33:21;;;;;;;3.05;1.65;;;3.80;99.90;;;;;;7368753;32;20106;-59
2021/12/02 09:37:23;;;;;;;2.03;1.37;;;3.80;99.90;;;;;;7373683;32;20129;-59
2021/12/02 09:41:25;;;;;;;2.08;1.20;;;3.80;99.90;;;;;;7373124;32;20103;-59
2021/12/02 09:45:27;;;;;;;2.42;1.12;;;3.80;99.90;;;;;;7373201;32;20240;-58
2021/12/02 09:49:28;;;;;;;1.83;1.15;;;3.70;99.90;;;;;;7372312;32;20478;-60
2021/12/02 09:53:37;;;;;;;2.80;1.27;;;3.70;99.90;;;;;;7369981;32;20120;-58
2021/12/02 09:57:43;;;;;;;2.10;1.60;;;3.80;99.90;;;;;;7371883;32;20127;-59
2021/12/02 10:01:49;;;;;;;3.22;1.90;;;3.90;99.90;;;;;;7367222;32;20115;-58
2021/12/02 10:06:03;;;;;;;3.08;1.80;;;4.10;99.90;;;;;;7369598;32;20130;-59
2021/12/02 10:10:32;;;;;;;4.40;1.75;;;4.10;99.90;;;;;;7364925;32;20133;-58
2021/12/02 10:14:38;;;;;;;3.65;1.70;;;4.10;99.90;;;;;;7364301;32;20106;-58
2021/12/02 10:18:54;;;;;;;3.75;1.95;;;4.30;99.90;;;;;;7368685;32;20830;-59
2021/12/02 10:23:27;;;;;;;7.10;2.35;;;4.30;99.90;;;;;;7370275;32;20117;-60
2021/12/02 10:27:28;;;;;;;5.35;2.55;;;4.20;99.90;;;;;;7367555;32;20129;-58
2021/12/02 10:31:30;;;;;;;2.95;1.77;;;4.30;99.90;;;;;;7361228;32;20197;-59
2021/12/02 10:35:38;;;;;;;3.37;2.10;;;4.20;99.90;;;;;;7369747;32;20111;-59
2021/12/02 10:39:40;;;;;;;3.90;2.20;;;4.20;99.90;;;;;;7368744;32;20138;-58
2021/12/02 10:44:06;;;;;;;2.83;1.70;;;4.10;99.90;;;;;;7363869;32;20566;-60
2021/12/02 10:48:08;;;;;;;4.20;1.85;;;4.10;99.90;;;;;;7364611;32;20131;-60
2021/12/02 10:52:13;;;;;;;3.30;1.70;;;4.10;99.90;;;;;;7370236;32;20466;-58
2021/12/02 10:56:37;;;;;;;2.83;1.62;;;4.30;99.90;;;;;;7367023;32;20129;-59
2021/12/02 11:00:43;;;;;;;4.90;1.80;;;4.30;99.90;;;;;;7368004;32;20131;-59
2021/12/02 11:04:59;;;;;;;7.37;1.75;;;4.40;99.90;;;;;;7367033;32;20100;-58
2021/12/02 11:09:01;;;;;;;2.47;1.45;;;4.50;99.90;;;;;;7363042;32;20544;-58
2021/12/02 11:13:04;;;;;;;4.93;1.73;;;4.80;99.90;;;;;;7368277;32;20115;-60
2021/12/02 11:17:08;;;;;;;5.15;1.60;;;5.00;99.90;;;;;;7364287;32;20208;-59
2021/12/02 11:21:20;;;;;;;2.15;0.70;;;5.10;99.90;;;;;;7361840;32;20129;-60
2021/12/02 11:25:22;;;;;;;3.60;0.75;;;4.80;99.90;;;;;;7367018;32;20108;-59
2021/12/02 11:29:48;;;;;;;4.15;0.90;;;4.70;99.90;;;;;;7366945;32;20563;-58
2021/12/02 11:33:52;;;;;;;3.97;0.68;;;4.90;99.90;;;;;;7365714;32;20456;-58
2021/12/02 11:38:17;;;;;;;3.20;0.98;;;4.80;99.90;;;;;;7362987;32;20108;-59
2021/12/02 11:42:20;;;;;;;5.57;1.02;;;4.80;99.90;;;;;;7364480;32;20123;-58
2021/12/02 11:46:23;;;;;;;5.72;0.98;;;4.60;99.90;;;;;;7368717;32;20167;-58
2021/12/02 11:50:28;;;;;;;2.47;1.15;;;4.60;99.90;;;;;;7365729;32;20501;-59
2021/12/02 11:54:31;;;;;;;3.12;1.00;;;4.60;99.90;;;;;;7367157;32;20142;-59
2021/12/02 11:58:33;;;;;;;4.62;1.33;;;4.60;99.90;;;;;;7370259;32;20479;-60
2021/12/02 12:02:36;;;;;;;1.90;0.93;;;4.50;99.90;;;;;;7368732;32;20446;-59
2021/12/02 12:06:43;;;;;;;4.53;0.95;;;4.50;99.90;;;;;;7369880;32;20129;-59
2021/12/02 12:10:44;;;;;;;2.35;0.95;;;4.40;99.90;;;;;;7372234;32;20134;-59
2021/12/02 12:14:48;;;;;;;4.53;1.17;;;4.40;99.90;;;;;;7368662;32;20116;-59
2021/12/02 12:18:51;;;;;;;2.87;1.15;;;4.40;99.90;;;;;;7368971;32;20226;-59
2021/12/02 12:22:52;;;;;;;1.80;0.90;;;4.40;99.90;;;;;;7372854;32;20556;-58
2021/12/02 12:27:22;;;;;;;1.73;1.20;;;4.20;99.90;;;;;;7372300;32;20482;-58
2021/12/02 12:31:24;;;;;;;3.05;1.20;;;4.20;99.90;;;;;;7367099;32;20130;-58
2021/12/02 12:35:47;;;;;;;2.85;1.17;;;4.10;99.90;;;;;;7372142;32;20626;-58
2021/12/02 12:40:30;;;;;;;7.35;1.40;;;4.10;99.90;;;;;;7365792;32;20106;-59
2021/12/02 12:44:51;;;;;;;3.25;1.50;;;4.00;99.90;;;;;;7364642;32;20115;-59
2021/12/02 12:48:56;;;;;;;4.18;1.30;;;4.00;99.90;;;;;;7373033;32;20537;-59
2021/12/02 12:53:07;;;;;;;4.82;1.48;;;4.10;99.90;;;;;;7373734;32;20107;-58
2021/12/02 12:57:08;;;;;;;5.18;1.58;;;4.10;99.90;;;;;;7363622;32;20202;-58
2021/12/02 13:01:21;;;;;;;2.20;1.02;;;4.20;99.90;;;;;;7377218;32;20131;-58
2021/12/02 13:05:55;;;;;;;3.50;1.10;;;4.10;99.90;;;;;;7379535;32;20178;-59
2021/12/02 13:10:02;;;;;;;5.62;1.80;;;4.20;99.90;;;;;;7375770;32;20190;-59
2021/12/02 13:14:04;;;;;;;;;;;4.20;99.90;;;;;;7372385;32;20111;-59
2021/12/02 13:18:06;;;;;;;1.73;0.90;;;4.30;99.90;;;;;;7379569;32;20006;-58
2021/12/02 13:22:16;;;;;;;3.15;1.20;;;4.30;99.90;;;;;;7376871;32;20257;-58
2021/12/02 13:26:20;;;;;;;3.53;1.15;;;4.40;99.90;;;;;;7379814;32;20198;-60
2021/12/02 13:30:21;;;;;;;3.92;1.30;;;4.30;99.90;;;;;;7377732;32;20218;-58
2021/12/02 13:34:26;;;;;;;5.50;1.12;;;4.20;99.90;;;;;;7372703;32;20133;-59
2021/12/02 13:38:27;;;;;;;2.95;1.10;;;4.30;99.90;;;;;;7380366;32;20609;-58
2021/12/02 13:42:29;;;;;;;3.22;1.20;;;4.20;99.90;;;;;;7378132;32;20107;-58
2021/12/02 13:46:38;;;;;;;4.12;1.35;;;4.10;99.90;;;;;;7371134;32;20743;-59
2021/12/02 13:50:43;;;;;;;2.60;1.33;;;4.00;99.90;;;;;;7375184;32;20114;-58
2021/12/02 13:54:54;;;;;;;3.33;1.67;;;4.00;99.90;;;;;;7377194;32;20123;-58
2021/12/02 13:59:14;;;;;;;3.00;1.67;;;4.00;99.90;;;;;;7369295;32;20125;-58
2021/12/02 14:03:21;;;;;;;5.22;1.73;;;4.10;99.90;;;;;;7368067;32;20100;-58
2021/12/02 14:07:27;;;;;;;2.92;1.70;;;4.10;99.90;;;;;;7373810;32;20102;-59
2021/12/02 14:11:28;;;;;;;4.53;1.98;;;4.10;99.90;;;;;;7379471;32;20202;-59
2021/12/02 14:15:38;;;;;;;1.80;1.12;;;4.20;99.90;;;;;;7376196;32;20133;-59
2021/12/02 14:20:03;;;;;;;2.80;1.20;;;4.10;99.90;;;;;;7375021;32;20452;-58
2021/12/02 14:24:05;;;;;;;5.72;1.45;;;4.10;99.90;;;;;;7380582;32;20107;-59
2021/12/02 14:28:33;;;;;;;2.17;1.00;;;4.10;99.90;;;;;;7377999;32;20103;-60
2021/12/02 14:32:35;;;;;;;2.33;1.12;;;4.10;99.90;;;;;;7376665;32;20433;-58
2021/12/02 14:36:42;;;;;;;5.35;1.02;;;4.10;99.90;;;;;;7379755;32;20202;-58
2021/12/02 14:40:47;;;;;;;4.12;1.40;;;4.20;99.90;;;;;;7378112;32;20657;-58
2021/12/02 14:44:48;;;;;;;3.03;1.27;;;4.30;99.90;;;;;;7379645;32;20221;-59
2021/12/02 14:48:59;;;;;;;2.53;0.93;;;4.30;99.90;;;;;;7376291;32;20366;-59
2021/12/02 14:53:05;;;;;;;2.72;1.20;;;4.30;99.90;;;;;;7378506;32;20114;-58
2021/12/02 14:57:28;;;;;;;5.28;1.37;;;4.30;99.90;;;;;;7374434;32;20696;-58
2021/12/02 15:01:30;;;;;;;4.12;1.27;;;4.30;99.90;;;;;;7372652;32;20148;-58
2021/12/02 15:05:32;;;;;;;4.20;1.48;;;4.30;99.90;;;;;;7370488;32;20451;-59
2021/12/02 15:09:35;;;;;;;2.35;1.50;;;4.20;99.90;;;;;;7378108;32;20119;-58
2021/12/02 15:13:41;;;;;;;5.03;1.70;;;3.80;99.90;;;;;;7378464;32;20551;-57
2021/12/02 15:17:56;;;;;;;3.53;1.52;;;3.60;99.90;;;;;;7379293;32;20130;-58
2021/12/02 15:21:58;;;;;;;4.35;1.40;;;3.40;99.90;;;;;;7373413;32;20228;-59
2021/12/02 15:26:06;;;;;;;4.82;2.05;;;3.20;99.90;;;;;;7378747;32;20103;-59
2021/12/02 15:30:08;;;;;;;4.10;1.67;;;3.10;99.90;;;;;;7375927;32;20111;-57
2021/12/02 15:34:09;;;;;;;4.50;1.80;;;3.00;99.90;;;;;;7378008;32;20118;-59
2021/12/02 15:38:11;;;;;;;5.05;1.83;;;3.00;99.90;;;;;;7375931;32;20129;-60
2021/12/02 15:42:13;;;;;;;6.20;2.20;;;3.10;99.90;;;;;;7373888;32;20749;-58
2021/12/02 15:46:16;;;;;;;3.33;1.45;;;3.00;99.90;;;;;;7377086;32;20107;-58
2021/12/02 15:50:19;;;;;;;5.05;1.30;;;3.00;99.90;;;;;;7374541;32;20711;-57
2021/12/02 15:54:21;;;;;;;8.48;2.03;;;3.10;99.90;;;;;;7381900;32;20115;-58
2021/12/02 15:58:23;;;;;;;6.87;1.85;;;3.10;99.90;;;;;;7377616;32;20129;-60
2021/12/02 16:02:29;;;;;;;2.92;1.60;;;3.10;99.90;;;;;;7379301;32;20523;-59
2021/12/02 16:06:38;;;;;;;4.00;1.52;;;3.10;99.90;;;;;;7378552;32;20557;-58
2021/12/02 16:10:45;;;;;;;3.58;1.83;;;3.00;99.90;;;;;;7383520;32;20099;-59
2021/12/02 16:14:47;;;;;;;;;;;3.00;99.90;;;;;;7382377;32;20122;-59
2021/12/02 16:18:48;;;;;;;6.45;1.90;;;2.80;99.90;;;;;;7382574;32;20105;-59
2021/12/02 16:22:50;;;;;;;5.35;1.73;;;2.80;99.90;;;;;;7377253;32;20141;-59
2021/12/02 16:26:52;;;;;;;5.35;1.85;;;2.80;99.90;;;;;;7381447;32;20111;-59
2021/12/02 16:30:54;;;;;;;3.78;1.77;;;2.70;99.90;;;;;;7382833;32;20542;-59
2021/12/02 16:34:55;;;;;;;2.12;0.95;;;2.80;99.90;;;;;;7376960;32;20162;-58
2021/12/02 16:39:03;;;;;;;2.75;0.90;;;2.80;99.90;;;;;;7377277;32;20141;-60
2021/12/02 16:43:07;;;;;;;2.85;0.60;;;2.80;99.90;;;;;;7380341;32;20122;-60
2021/12/02 16:47:09;;;;;;;2.78;0.37;;;2.80;99.90;;;;;;7381681;32;20448;-59
2021/12/02 16:51:11;;;;;;;4.43;0.47;;;2.80;99.90;;;;;;7377299;32;20589;-60
2021/12/02 16:55:13;;;;;;;1.50;0.57;;;2.80;99.90;;;;;;7377203;32;20107;-59
2021/12/02 16:59:15;;;;;;;1.35;0.40;;;2.70;99.90;;;;;;7382025;32;20103;-59
2021/12/02 17:03:16;;;;;;;1.45;0.30;;;2.80;99.90;;;;;;7373952;32;20224;-58
2021/12/02 17:07:19;;;;;;;1.40;0.30;;;2.70;99.90;;;;;;7379832;32;20583;-60
2021/12/02 17:11:21;;;;;;;4.70;0.90;;;2.50;99.90;;;;;;7382187;32;20542;-59
2021/12/02 17:15:33;;;;;;;2.58;0.60;;;2.40;99.90;;;;;;7381488;32;20186;-59
2021/12/02 17:19:34;;;;;;;2.83;1.10;;;2.30;99.90;;;;;;7375075;32;20583;-59
2021/12/02 17:23:36;;;;;;;5.00;1.87;;;2.40;99.90;;;;;;7378331;32;20111;-60
2021/12/02 17:27:39;;;;;;;1.90;0.90;;;2.30;99.90;;;;;;7381776;32;20111;-59
2021/12/02 17:31:41;;;;;;;4.43;1.27;;;2.20;99.90;;;;;;7375061;32;20511;-60
2021/12/02 17:35:43;;;;;;;6.97;1.87;;;2.10;99.90;;;;;;7376945;32;20107;-59
2021/12/02 17:39:48;;;;;;;2.00;1.55;;;2.20;99.90;;;;;;7373786;32;20225;-60
2021/12/02 17:43:50;;;;;;;2.33;1.40;;;2.10;99.90;;;;;;7382456;32;20133;-59
2021/12/02 17:47:53;;;;;;;1.70;1.00;;;2.00;99.90;;;;;;7371040;32;20119;-59
2021/12/02 17:51:55;;;;;;;3.20;1.17;;;1.90;99.90;;;;;;7378157;32;20129;-58
2021/12/02 17:55:56;;;;;;;3.50;1.27;;;1.80;99.90;;;;;;7378157;32;20108;-59
2021/12/02 17:59:58;;;;;;;4.18;1.40;;;1.70;99.90;;;;;;7381080;32;20240;-59
2021/12/02 18:04:00;;;;;;;2.35;1.30;;;1.70;99.90;;;;;;7372182;32;20115;-59
2021/12/02 18:08:02;;;;;;;5.37;1.85;;;1.60;99.90;;;;;;7380980;32;20129;-59
2021/12/02 18:12:04;;;;;;;3.03;1.95;;;1.40;99.90;;;;;;7381957;32;20133;-59
2021/12/02 18:16:06;;;;;;;3.10;1.52;;;1.40;99.90;;;;;;7380393;32;20099;-57
2021/12/02 18:20:10;;;;;;;2.87;1.85;;;1.20;99.90;;;;;;7371092;32;20210;-59
2021/12/02 18:24:11;;;;;;;4.00;1.90;;;1.10;99.90;;;;;;7373126;32;20106;-59
2021/12/02 18:28:13;;;;;;;4.03;2.80;;;1.00;99.90;;;;;;7366314;32;20811;-59
2021/12/02 18:32:18;;;;;;;4.05;2.30;;;0.80;99.90;;;;;;7376793;32;20138;-58
2021/12/02 18:36:20;;;;;;;4.78;3.75;;;0.70;99.90;;;;;;7376643;32;20152;-59
2021/12/02 18:40:23;;;;;;;6.62;4.22;;;0.70;99.90;;;;;;7380243;32;20102;-60
2021/12/02 18:44:24;;;;;;;3.40;2.80;;;0.60;99.90;;;;;;7367038;32;20504;-60
2021/12/02 18:48:27;;;;;;;3.47;2.28;;;0.60;99.90;;;;;;7380057;32;20103;-58
2021/12/02 18:52:28;;;;;;;4.12;2.45;;;0.40;99.90;;;;;;7372014;32;20203;-60
2021/12/02 18:56:31;;;;;;;16.50;12.00;;;0.30;99.90;;;;;;7376542;32;20178;-59
2021/12/02 19:00:33;;;;;;;39.10;19.77;;;0.30;99.90;;;;;;7368105;32;20441;-61
2021/12/02 19:04:35;;;;;;;34.50;17.42;;;0.30;99.90;;;;;;7367958;32;20134;-59
2021/12/02 19:22:39;;;;;;;40.65;21.77;;;0.10;99.90;;;;;;7376028;32;20542;-60
2021/12/02 19:30:05;;;;;;;9.40;5.62;;;0.00;99.90;;;;;;7374590;32;20244;-59
2021/12/02 19:34:07;;;;;;;8.32;5.47;;;0.00;99.90;;;;;;7358560;32;20127;-61
2021/12/02 19:38:09;;;;;;;5.40;3.85;;;-0.10;99.90;;;;;;7374538;32;20216;-60
2021/12/02 19:42:11;;;;;;;12.60;6.12;;;-0.10;99.90;;;;;;7370331;32;20141;-60
2021/12/02 19:46:15;;;;;;;18.73;8.25;;;-0.10;99.90;;;;;;7376501;32;20122;-59
2021/12/02 19:50:17;;;;;;;10.55;5.32;;;-0.20;99.90;;;;;;7376144;32;20837;-60
2021/12/02 19:54:18;;;;;;;10.85;5.40;;;-0.20;99.90;;;;;;7376205;32;20190;-60
2021/12/02 19:58:20;;;;;;;9.02;5.43;;;-0.20;99.90;;;;;;7377861;32;20486;-59
2021/12/02 20:02:22;;;;;;;9.73;5.40;;;-0.30;99.90;;;;;;7360700;32;20107;-59
2021/12/02 20:06:24;;;;;;;9.52;5.68;;;-0.30;99.90;;;;;;7361042;32;20123;-59
2021/12/02 20:10:26;;;;;;;9.05;5.82;;;-0.30;99.90;;;;;;7361236;32;20205;-61
2021/12/02 20:14:28;;;;;;;10.45;5.80;;;-0.30;99.90;;;;;;7364966;32;20642;-59
2021/12/02 20:18:38;;;;;;;10.52;6.05;;;-0.20;99.90;;;;;;7363578;32;20153;-60
2021/12/02 20:22:40;;;;;;;10.70;5.97;;;-0.30;99.90;;;;;;7364916;32;20679;-60
2021/12/02 20:26:42;;;;;;;10.32;6.68;;;-0.30;99.90;;;;;;7371880;32;20106;-58
2021/12/02 20:30:44;;;;;;;11.90;6.47;;;-0.30;99.90;;;;;;7363997;32;20112;-59
2021/12/02 20:34:46;;;;;;;9.10;6.22;;;-0.40;99.90;;;;;;7353102;32;20170;-60
2021/12/02 20:38:48;;;;;;;10.23;6.15;;;-0.40;99.90;;;;;;7363878;32;20226;-58
2021/12/02 20:42:50;;;;;;;11.45;5.25;;;-0.50;99.90;;;;;;7369185;32;20134;-60
2021/12/02 20:46:57;;;;;;;7.28;4.72;;;-0.30;99.90;;;;;;7369601;32;20125;-60
2021/12/02 20:51:03;;;;;;;8.40;4.85;;;-0.50;99.90;;;;;;7371375;32;20205;-60
2021/12/02 20:55:09;;;;;;;13.85;6.82;;;-0.40;99.90;;;;;;7366564;32;20776;-60
2021/12/02 20:59:11;;;;;;;11.82;7.93;;;-0.40;99.90;;;;;;7367922;32;20103;-59
2021/12/02 21:03:13;;;;;;;14.87;7.37;;;-0.40;99.90;;;;;;7365874;32;20123;-60
2021/12/02 21:07:16;;;;;;;10.85;5.70;;;-0.30;99.90;;;;;;7367909;32;20099;-59
2021/12/02 21:11:18;;;;;;;8.15;5.85;;;-0.20;99.90;;;;;;7367641;32;20111;-58
2021/12/02 21:15:23;;;;;;;12.10;6.85;;;-0.20;99.90;;;;;;7361966;32;20767;-59
2021/12/02 21:19:25;;;;;;;10.85;6.68;;;-0.20;99.90;;;;;;7369305;32;20111;-61
2021/12/02 21:23:27;;;;;;;13.60;6.78;;;-0.20;99.90;;;;;;7373044;32;20111;-59
2021/12/02 21:27:29;;;;;;;10.05;5.70;;;-0.20;99.90;;;;;;7374176;32;20201;-59
2021/12/02 21:31:31;;;;;;;11.27;5.95;;;-0.30;99.90;;;;;;7379298;32;20186;-59
2021/12/02 21:35:35;;;;;;;9.85;5.93;;;-0.30;99.90;;;;;;7370848;32;20216;-59
2021/12/02 21:39:37;;;;;;;9.55;5.82;;;-0.40;99.90;;;;;;7375571;32;20137;-60
2021/12/02 21:43:39;;;;;;;10.18;6.85;;;-0.50;99.90;;;;;;7378197;32;20170;-60
2021/12/02 21:47:41;;;;;;;10.18;6.03;;;-0.40;99.90;;;;;;7379248;32;20491;-59